Flag Lama — V7QE5 — position and weather

sailwx.info

Track history (hours):
 
Tides and Currents Weather Stations Pressure Air Temp Water Temp Dewpoint Dewpoint Depression Visibility Wind Speed Wind Dir Waves Ship Positions

Flag Lama

Last reported at 2017-Jul-10 02:35 UTC. Time now 2017-Aug-17 11:43 UTC.
Position N 01°18' E 103°20'.
Warning: this ship's position is 38 days out of date.

Length 229 m; draft 14.7 m.

Type: Cargo ship. MMSI: 538006963.

Date/timePositionNaut miles runAvg speedWind from/ knotsBaromVisibWave heightAir tempDewpointWater temp
2017-Jul-10 02:35N 01°18' E 103°20'110.3
2017-Jul-10 02:30N 01°17' E 103°21'610.8
2017-Jul-10 01:59N 01°14' E 103°26'511.7
2017-Jul-10 01:30N 01°13' E 103°31'612.0
2017-Jul-10 01:00N 01°12' E 103°37'611.5
2017-Jul-10 00:31N 01°09' E 103°42'4 8.5
2017-Jul-10 00:00N 01°10' E 103°46'510.0
2017-Jul-09 23:30N 01°12' E 103°51'5 9.5
2017-Jul-09 23:01N 01°14' E 103°55'2 4.5
2017-Jul-09 22:30N 01°16' E 103°56'1 0.2
2017-Jul-09 16:26N 01°17' E 103°56'0 0.1
2017-Jul-09 15:59N 01°17' E 103°56'0 0.3
2017-Jul-09 15:26N 01°17' E 103°56'0 0.2
2017-Jul-09 14:59N 01°17' E 103°56'0 0.1
2017-Jul-09 14:29N 01°17' E 103°56'1 1.8
2017-Jul-09 13:58N 01°16' E 103°55'2 4.0
2017-Jul-09 13:30N 01°16' E 103°57'2 5.0
2017-Jul-09 13:01N 01°15' E 103°60'  
Track history (hours):
 
Tides and Currents Weather Stations Pressure Air Temp Water Temp Dewpoint Dewpoint Depression Visibility Wind Speed Wind Dir Waves Ship Positions

Flag Lama

Last reported at 2017-Jul-10 02:35 UTC. Time now 2017-Aug-17 11:43 UTC.
Position N 01°18' E 103°20'.
Warning: this ship's position is 38 days out of date.

Length 229 m; draft 14.7 m.

Type: Cargo ship. MMSI: 538006963.

Date/timePositionNaut miles runAvg speedWind from/ knotsBaromVisibWave heightAir tempDewpointWater temp
2017-Jul-10 02:35N 01°18' E 103°20'110.3
2017-Jul-10 02:30N 01°17' E 103°21'610.8
2017-Jul-10 01:59N 01°14' E 103°26'511.7
2017-Jul-10 01:30N 01°13' E 103°31'612.0
2017-Jul-10 01:00N 01°12' E 103°37'611.5
2017-Jul-10 00:31N 01°09' E 103°42'4 8.5
2017-Jul-10 00:00N 01°10' E 103°46'510.0
2017-Jul-09 23:30N 01°12' E 103°51'5 9.5
2017-Jul-09 23:01N 01°14' E 103°55'2 4.5
2017-Jul-09 22:30N 01°16' E 103°56'1 0.2
2017-Jul-09 16:26N 01°17' E 103°56'0 0.1
2017-Jul-09 15:59N 01°17' E 103°56'0 0.3
2017-Jul-09 15:26N 01°17' E 103°56'0 0.2
2017-Jul-09 14:59N 01°17' E 103°56'0 0.1
2017-Jul-09 14:29N 01°17' E 103°56'1 1.8
2017-Jul-09 13:58N 01°16' E 103°55'2 4.0
2017-Jul-09 13:30N 01°16' E 103°57'2 5.0
2017-Jul-09 13:01N 01°15' E 103°60'  

Dump ship's entire track history